Time;durP1;ratioP1;P1;durP2;ratioP2;P2;SDS_P1;SDS_P2;PMS_P1;PMS_P2;Temp;Humidity;BMP_temperature;BMP_pressure;BME280_temperature;BME280_humidity;BME280_pressure;Samples;Min_cycle;Max_cycle;Signal;HPM_P1;HPM_P2
2022/02/15 00:01:09;;;;;;;36.47;23.60;;;2.30;99.90;;;;;;2586440;54;20454;31
2022/02/15 00:03:41;;;;;;;37.55;22.05;;;2.30;99.90;;;;;;2586487;54;20895;31
2022/02/15 00:06:15;;;;;;;36.30;21.90;;;2.30;99.90;;;;;;2586387;54;20068;31
2022/02/15 00:08:49;;;;;;;38.90;23.67;;;2.30;99.90;;;;;;2586441;54;20902;31
2022/02/15 00:11:23;;;;;;;41.15;22.50;;;2.40;99.90;;;;;;2586420;54;20054;31
2022/02/15 00:13:57;;;;;;;38.67;23.42;;;2.40;99.90;;;;;;2586516;54;20030;31
2022/02/15 00:16:28;;;;;;;43.45;24.38;;;2.40;99.90;;;;;;2586102;54;20859;31
2022/02/15 00:18:59;;;;;;;41.58;23.65;;;2.40;99.90;;;;;;2586555;54;20030;31
2022/02/15 00:21:33;;;;;;;37.70;23.73;;;2.40;99.90;;;;;;2586500;54;20034;31
2022/02/15 00:24:08;;;;;;;44.15;25.63;;;2.40;99.90;;;;;;2586451;54;20034;31
2022/02/15 00:26:41;;;;;;;44.43;25.93;;;2.40;99.90;;;;;;2586431;54;20556;31
2022/02/15 00:29:17;;;;;;;39.13;25.08;;;2.40;99.90;;;;;;2586391;54;20183;31
2022/02/15 00:31:51;;;;;;;42.27;25.10;;;2.50;99.90;;;;;;2586327;54;20061;31
2022/02/15 00:34:25;;;;;;;41.40;24.73;;;2.40;99.90;;;;;;2586423;54;20690;31
2022/02/15 00:36:56;;;;;;;42.72;24.92;;;2.40;99.90;;;;;;2586247;54;20050;31
2022/02/15 00:39:30;;;;;;;47.13;27.92;;;2.50;99.90;;;;;;2585915;54;20922;31
2022/02/15 00:42:06;;;;;;;51.67;27.90;;;2.50;99.90;;;;;;2586412;54;20046;31
2022/02/15 00:44:41;;;;;;;49.40;26.70;;;2.50;99.90;;;;;;2604961;46;20030;31
2022/02/15 00:47:15;;;;;;;44.13;25.65;;;2.50;99.90;;;;;;2586296;54;20133;31
2022/02/15 00:49:47;;;;;;;44.30;25.55;;;2.50;99.90;;;;;;2586200;54;20905;31
2022/02/15 00:52:21;;;;;;;45.88;25.75;;;2.60;99.90;;;;;;2586475;54;20029;31
2022/02/15 00:54:55;;;;;;;43.85;26.65;;;2.60;99.90;;;;;;2585561;54;20088;31
2022/02/15 00:57:29;;;;;;;41.00;25.10;;;2.60;99.90;;;;;;2586554;54;20059;31
2022/02/15 01:00:04;;;;;;;43.00;25.45;;;2.70;99.90;;;;;;2585427;54;20549;31
2022/02/15 01:02:37;;;;;;;41.65;24.90;;;2.70;99.90;;;;;;2598646;46;20887;31
2022/02/15 01:05:09;;;;;;;40.33;24.15;;;2.70;99.90;;;;;;2586302;54;20033;31
2022/02/15 01:07:44;;;;;;;49.60;27.00;;;2.70;99.90;;;;;;2604993;46;20026;31
2022/02/15 01:10:15;;;;;;;40.40;25.35;;;2.70;99.90;;;;;;2586358;54;20919;31
2022/02/15 01:12:47;;;;;;;44.03;25.80;;;2.70;99.90;;;;;;2684079;39;20382;31
2022/02/15 01:15:24;;;;;;;47.27;26.57;;;2.70;99.90;;;;;;2586308;54;20116;31
2022/02/15 01:17:56;;;;;;;44.45;25.85;;;2.70;99.90;;;;;;2683904;39;20755;31
2022/02/15 01:20:27;;;;;;;46.60;25.50;;;2.70;99.90;;;;;;2604067;46;20117;31
2022/02/15 01:22:59;;;;;;;43.92;26.13;;;2.70;99.90;;;;;;2586235;54;20942;31
2022/02/15 01:25:32;;;;;;;43.50;26.43;;;2.80;99.90;;;;;;2586255;54;20033;31
2022/02/15 01:28:04;;;;;;;44.22;26.42;;;2.80;99.90;;;;;;2586095;54;20886;31
2022/02/15 01:30:39;;;;;;;44.95;26.23;;;2.80;99.90;;;;;;2586149;54;20942;31
2022/02/15 01:33:13;;;;;;;46.25;26.83;;;2.80;99.90;;;;;;2586050;54;20509;31
2022/02/15 01:35:47;;;;;;;52.05;29.10;;;2.80;99.90;;;;;;2683730;39;20640;31
2022/02/15 01:38:21;;;;;;;51.00;29.90;;;2.80;99.90;;;;;;2586322;54;20744;31
2022/02/15 01:40:54;;;;;;;47.28;28.33;;;2.80;99.90;;;;;;2585999;54;20294;31
2022/02/15 01:43:29;;;;;;;47.30;27.42;;;2.80;99.90;;;;;;2586224;54;20799;31
2022/02/15 01:46:04;;;;;;;46.17;26.10;;;2.80;99.90;;;;;;2586090;54;20045;31
2022/02/15 01:48:35;;;;;;;47.88;27.33;;;2.80;99.90;;;;;;2585690;54;20027;31
2022/02/15 01:51:08;;;;;;;49.40;28.17;;;2.80;99.90;;;;;;2586173;54;20477;31
2022/02/15 01:53:42;;;;;;;47.23;27.27;;;2.70;99.90;;;;;;2586242;54;20914;31
2022/02/15 01:56:16;;;;;;;50.33;28.77;;;2.70;99.90;;;;;;2586213;54;20069;31
2022/02/15 01:58:50;;;;;;;52.03;29.10;;;2.70;99.90;;;;;;2585356;54;20977;31
2022/02/15 02:01:27;;;;;;;56.65;31.15;;;2.70;99.90;;;;;;2586298;54;20843;31
2022/02/15 02:07:15;;;;;;;;;;;2.60;99.90;;;;;;2586347;54;20285;31
2022/02/15 02:09:46;;;;;;;47.80;28.80;;;2.70;99.90;;;;;;2586113;54;20667;31
2022/02/15 02:12:18;;;;;;;53.83;30.33;;;2.70;99.90;;;;;;2586052;54;20121;31
2022/02/15 02:15:02;;;;;;;51.20;31.67;;;2.60;99.90;;;;;;2586039;54;20851;31
2022/02/15 02:17:59;;;;;;;56.00;30.60;;;2.60;99.90;;;;;;2586006;54;20033;31
2022/02/15 02:20:33;;;;;;;57.67;31.73;;;2.60;99.90;;;;;;2586032;54;20875;31
2022/02/15 02:23:11;;;;;;;54.05;31.05;;;2.60;99.90;;;;;;2604665;46;20040;31
2022/02/15 02:25:45;;;;;;;55.80;30.08;;;2.60;99.90;;;;;;2585864;54;20309;31
2022/02/15 02:28:22;;;;;;;53.35;30.10;;;2.60;99.90;;;;;;2586041;54;20838;31
2022/02/15 02:30:54;;;;;;;59.90;34.70;;;2.70;99.90;;;;;;2586347;54;20846;31
2022/02/15 02:33:27;;;;;;;51.55;29.73;;;2.60;99.90;;;;;;2604732;47;20084;31
2022/02/15 02:36:01;;;;;;;58.42;32.55;;;2.60;99.90;;;;;;2585979;54;20874;31
2022/02/15 02:38:37;;;;;;;57.85;31.70;;;2.60;99.90;;;;;;2586488;54;20736;31
2022/02/15 02:41:10;;;;;;;55.10;32.30;;;2.60;99.90;;;;;;2586653;54;20402;31
2022/02/15 02:43:43;;;;;;;54.83;33.05;;;2.60;99.90;;;;;;2586651;54;20821;31
2022/02/15 02:46:18;;;;;;;49.97;28.85;;;2.60;99.90;;;;;;2586839;54;19934;31
2022/02/15 02:48:53;;;;;;;56.47;31.97;;;2.60;99.90;;;;;;2586884;54;20930;31
2022/02/15 02:51:26;;;;;;;53.33;30.60;;;2.60;99.90;;;;;;2586775;54;20157;31
2022/02/15 02:54:03;;;;;;;45.20;27.30;;;2.70;99.90;;;;;;2586943;54;20031;31
2022/02/15 02:56:40;;;;;;;55.50;30.65;;;2.60;99.90;;;;;;2586779;54;20246;31
2022/02/15 02:59:12;;;;;;;57.55;31.35;;;2.70;99.90;;;;;;2586559;54;20860;31
2022/02/15 03:01:45;;;;;;;40.95;24.90;;;2.60;99.90;;;;;;2605480;46;20870;31
2022/02/15 03:04:19;;;;;;;47.20;27.83;;;2.70;99.90;;;;;;2586815;54;21117;31
2022/02/15 03:06:53;;;;;;;53.90;31.10;;;2.70;99.90;;;;;;2586752;54;19966;31
2022/02/15 03:09:30;;;;;;;58.90;34.15;;;2.60;99.90;;;;;;2586774;54;20910;31
2022/02/15 03:12:02;;;;;;;36.90;21.33;;;2.70;99.90;;;;;;2586972;54;21208;31
2022/02/15 03:14:36;;;;;;;55.37;32.47;;;2.70;99.90;;;;;;2586595;54;20264;31
2022/02/15 03:17:09;;;;;;;58.57;31.80;;;2.60;99.90;;;;;;2604876;46;20034;31
2022/02/15 03:19:42;;;;;;;54.38;32.47;;;2.70;99.90;;;;;;2586509;54;20954;31
2022/02/15 03:22:16;;;;;;;51.50;30.80;;;2.60;99.90;;;;;;2586778;54;20038;31
2022/02/15 03:24:52;;;;;;;53.08;31.35;;;2.70;99.90;;;;;;2586784;54;20042;31
2022/02/15 03:27:26;;;;;;;55.70;32.17;;;2.70;99.90;;;;;;2587009;54;20983;31
2022/02/15 03:30:00;;;;;;;58.25;33.17;;;2.70;99.90;;;;;;2605018;46;20898;31
2022/02/15 03:32:39;;;;;;;50.28;28.67;;;2.70;99.90;;;;;;2586698;54;20032;31
2022/02/15 03:35:11;;;;;;;62.20;33.70;;;2.70;99.90;;;;;;2586736;54;20913;31
2022/02/15 03:37:49;;;;;;;55.53;32.87;;;2.60;99.90;;;;;;2604858;46;20897;31
2022/02/15 03:43:04;;;;;;;58.47;33.00;;;2.60;99.90;;;;;;2605176;46;20033;31
2022/02/15 03:43:25;;;;;;;59.75;33.40;;;2.70;99.90;;;;;;2586802;54;20115;31
2022/02/15 03:46:04;;;;;;;58.08;31.27;;;2.70;99.90;;;;;;2586703;54;20856;31
2022/02/15 03:48:43;;;;;;;53.53;32.40;;;2.70;99.90;;;;;;2586600;54;20081;31
2022/02/15 03:51:17;;;;;;;49.10;30.73;;;2.70;99.90;;;;;;2605193;46;20030;31
2022/02/15 03:53:55;;;;;;;54.90;31.05;;;2.70;99.90;;;;;;2586454;54;20557;31
2022/02/15 03:56:33;;;;;;;59.55;32.10;;;2.80;99.90;;;;;;2586423;54;20924;31
2022/02/15 03:59:07;;;;;;;54.10;34.20;;;2.80;99.90;;;;;;2586439;54;20030;31
2022/02/15 04:01:39;;;;;;;59.40;34.10;;;2.80;99.90;;;;;;2586396;54;20495;31
2022/02/15 04:04:13;;;;;;;59.40;34.40;;;2.80;99.90;;;;;;2586566;54;20814;31
2022/02/15 04:06:51;;;;;;;56.25;34.83;;;2.70;99.90;;;;;;2586554;54;20309;31
2022/02/15 04:09:26;;;;;;;51.45;31.98;;;2.70;99.90;;;;;;2604818;46;20030;31
2022/02/15 04:12:06;;;;;;;58.50;35.65;;;2.70;99.90;;;;;;2586525;54;20033;31
2022/02/15 04:14:42;;;;;;;71.55;41.03;;;2.70;99.90;;;;;;2586728;54;20859;31
2022/02/15 04:17:15;;;;;;;67.70;41.10;;;2.70;99.90;;;;;;2586352;54;20034;31
2022/02/15 04:19:47;;;;;;;67.40;39.33;;;2.70;99.90;;;;;;2586387;54;20851;31
2022/02/15 04:22:21;;;;;;;60.70;35.58;;;2.70;99.90;;;;;;2586487;54;21150;31
2022/02/15 04:24:56;;;;;;;60.78;34.22;;;2.70;99.90;;;;;;2604665;46;20476;31
2022/02/15 04:27:33;;;;;;;59.80;35.43;;;2.70;99.90;;;;;;2586476;54;20033;31
2022/02/15 04:30:07;;;;;;;59.00;34.40;;;2.70;99.90;;;;;;2604723;46;20756;31
2022/02/15 04:32:43;;;;;;;58.33;35.57;;;2.70;99.90;;;;;;2586432;54;20775;31
2022/02/15 04:35:15;;;;;;;63.08;34.72;;;2.70;99.90;;;;;;2585573;54;21244;31
2022/02/15 04:37:51;;;;;;;61.30;34.50;;;2.70;99.90;;;;;;2586558;54;20843;31
2022/02/15 04:40:25;;;;;;;59.03;35.63;;;2.70;99.90;;;;;;2586363;54;20865;31
2022/02/15 04:43:03;;;;;;;60.27;35.43;;;2.70;99.90;;;;;;2586534;54;20904;31
2022/02/15 04:45:36;;;;;;;63.70;35.78;;;2.60;99.90;;;;;;2586355;54;20034;31
2022/02/15 04:48:09;;;;;;;62.78;37.72;;;2.60;99.90;;;;;;2604285;46;20500;31
2022/02/15 04:50:41;;;;;;;64.25;37.65;;;2.60;99.90;;;;;;2586340;54;20744;31
2022/02/15 04:53:14;;;;;;;55.45;36.42;;;2.60;99.90;;;;;;2586406;54;21057;31
2022/02/15 04:55:47;;;;;;;63.30;37.25;;;2.60;99.90;;;;;;2604408;46;20540;31
2022/02/15 04:58:22;;;;;;;62.57;36.43;;;2.60;99.90;;;;;;2585588;54;20892;31
2022/02/15 05:00:54;;;;;;;65.90;39.45;;;2.70;99.90;;;;;;2586168;54;20321;31
2022/02/15 05:03:36;;;;;;;68.60;39.00;;;2.70;99.90;;;;;;2586440;54;20050;31
2022/02/15 05:06:08;;;;;;;68.73;38.23;;;2.70;99.90;;;;;;2586280;54;20133;31
2022/02/15 05:08:40;;;;;;;64.93;38.50;;;2.70;99.90;;;;;;2586356;54;21224;31
2022/02/15 05:11:12;;;;;;;60.92;37.75;;;2.60;99.90;;;;;;2586262;54;20565;31
2022/02/15 05:13:52;;;;;;;69.90;40.22;;;2.70;99.90;;;;;;2604962;46;20061;31
2022/02/15 05:16:32;;;;;;;65.70;38.25;;;2.70;99.90;;;;;;2586201;54;21398;31
2022/02/15 05:19:24;;;;;;;59.25;36.05;;;2.80;99.90;;;;;;2702546;39;20553;31
2022/02/15 05:22:05;;;;;;;66.65;37.83;;;2.70;99.90;;;;;;2604870;46;20089;31
2022/02/15 05:24:52;;;;;;;60.50;35.50;;;2.70;99.90;;;;;;2586226;54;20076;31
2022/02/15 05:27:28;;;;;;;53.65;32.75;;;2.70;99.90;;;;;;2586236;54;20768;31
2022/02/15 05:30:11;;;;;;;57.70;34.85;;;2.70;99.90;;;;;;2604832;46;20751;31
2022/02/15 05:33:00;;;;;;;64.50;35.95;;;2.70;99.90;;;;;;2605049;46;20103;31
2022/02/15 05:35:32;;;;;;;56.30;33.20;;;2.70;99.90;;;;;;2586170;54;20819;31
2022/02/15 05:38:05;;;;;;;50.95;29.70;;;2.70;99.90;;;;;;2604712;46;21001;31
2022/02/15 05:40:45;;;;;;;58.00;34.47;;;2.70;99.90;;;;;;2586422;54;20992;31
2022/02/15 05:43:17;;;;;;;60.83;34.87;;;2.70;99.90;;;;;;2586023;54;20880;31
2022/02/15 05:45:58;;;;;;;46.65;30.15;;;2.70;99.90;;;;;;2586129;54;20049;31
2022/02/15 05:48:38;;;;;;;53.03;30.50;;;2.80;99.90;;;;;;2586239;54;20724;31
2022/02/15 05:51:26;;;;;;;59.03;35.17;;;2.80;99.90;;;;;;2586305;54;20325;31
2022/02/15 05:54:07;;;;;;;60.90;36.80;;;2.80;99.90;;;;;;2604463;46;20033;31
2022/02/15 05:56:44;;;;;;;55.80;33.15;;;2.80;99.90;;;;;;2604498;46;20026;31
2022/02/15 05:59:28;;;;;;;65.07;39.70;;;2.80;99.90;;;;;;2586363;54;20042;31
2022/02/15 06:02:15;;;;;;;;;;;2.80;99.90;;;;;;2605066;46;20869;31
2022/02/15 06:04:56;;;;;;;68.20;40.17;;;2.80;99.90;;;;;;2586037;54;19939;31
2022/02/15 06:07:34;;;;;;;62.95;37.75;;;2.70;99.90;;;;;;2585378;54;20777;31
2022/02/15 06:10:18;;;;;;;66.88;42.70;;;2.80;99.90;;;;;;2586160;54;20892;31
2022/02/15 06:12:52;;;;;;;170.75;79.50;;;2.80;99.90;;;;;;2585650;54;20738;31
2022/02/15 06:15:28;;;;;;;;;;;2.80;99.90;;;;;;2586310;54;20153;31
2022/02/15 06:18:23;;;;;;;76.95;43.78;;;2.80;99.90;;;;;;2585859;54;19961;31
2022/02/15 06:21:01;;;;;;;73.00;43.70;;;2.80;99.90;;;;;;2586150;54;20026;31
2022/02/15 06:23:35;;;;;;;63.23;36.73;;;2.80;99.90;;;;;;2586139;54;20045;31
2022/02/15 06:26:13;;;;;;;67.43;37.00;;;2.80;99.90;;;;;;2586027;54;20022;31
2022/02/15 06:29:03;;;;;;;62.33;37.75;;;2.80;99.90;;;;;;2683591;39;21338;31
2022/02/15 06:31:41;;;;;;;51.70;32.73;;;2.80;99.90;;;;;;2585827;54;20042;31
2022/02/15 06:34:25;;;;;;;77.72;45.45;;;2.80;99.90;;;;;;2586129;54;20048;31
2022/02/15 06:37:04;;;;;;;71.80;42.33;;;2.90;99.90;;;;;;2586246;54;20873;31
2022/02/15 06:39:42;;;;;;;73.10;42.07;;;2.90;99.90;;;;;;2585926;54;20802;31
2022/02/15 06:42:15;;;;;;;64.82;40.33;;;2.90;99.90;;;;;;2585544;54;20761;31
2022/02/15 06:44:52;;;;;;;66.20;43.55;;;2.90;99.90;;;;;;2586003;54;20950;31
2022/02/15 06:47:29;;;;;;;67.87;40.80;;;2.90;99.90;;;;;;2585890;54;20089;31
2022/02/15 06:50:12;;;;;;;64.60;41.15;;;2.90;99.90;;;;;;2585990;54;20830;31
2022/02/15 06:52:58;;;;;;;52.80;33.90;;;3.00;99.90;;;;;;2586141;54;20767;31
2022/02/15 06:56:12;;;;;;;56.53;34.58;;;3.00;99.90;;;;;;2585867;54;20250;31
2022/02/15 06:58:52;;;;;;;65.38;38.58;;;3.00;99.90;;;;;;2604250;47;20032;31
2022/02/15 07:01:29;;;;;;;65.32;38.70;;;3.00;99.90;;;;;;2595081;47;20905;31
2022/02/15 07:04:02;;;;;;;89.63;52.67;;;3.00;99.90;;;;;;2586016;54;20760;31
2022/02/15 07:06:38;;;;;;;173.45;86.28;;;3.10;99.90;;;;;;2585840;54;20298;31
2022/02/15 07:09:11;;;;;;;149.02;77.93;;;3.00;99.90;;;;;;2585969;54;20874;31
2022/02/15 07:12:03;;;;;;;90.43;52.03;;;3.10;99.90;;;;;;2585961;54;21001;31
2022/02/15 07:14:43;;;;;;;93.30;51.60;;;3.20;99.90;;;;;;2604029;47;20464;31
2022/02/15 07:17:24;;;;;;;88.00;53.70;;;3.10;99.90;;;;;;2585864;54;20757;31
2022/02/15 07:19:59;;;;;;;70.07;45.55;;;3.20;99.90;;;;;;2585711;54;20014;31
2022/02/15 07:22:55;;;;;;;78.68;51.10;;;3.10;99.90;;;;;;2585832;54;20808;31
2022/02/15 07:25:52;;;;;;;73.28;44.22;;;3.10;99.90;;;;;;2586249;54;20023;31
2022/02/15 07:28:41;;;;;;;64.43;40.70;;;3.20;99.90;;;;;;2586618;54;20037;31
2022/02/15 07:31:14;;;;;;;64.93;41.28;;;3.20;99.90;;;;;;2586852;54;20062;31
2022/02/15 07:33:48;;;;;;;126.15;55.45;;;3.30;99.90;;;;;;2585869;54;20884;31
2022/02/15 07:36:22;;;;;;;170.00;90.97;;;3.40;99.90;;;;;;2585665;54;20046;31
2022/02/15 07:38:57;;;;;;;246.00;136.10;;;3.70;99.90;;;;;;2605414;46;20046;31
2022/02/15 07:41:31;;;;;;;104.18;63.58;;;3.70;99.90;;;;;;2586539;54;20837;31
2022/02/15 07:44:06;;;;;;;79.40;50.38;;;3.80;99.90;;;;;;2586743;54;20030;31
2022/02/15 07:46:49;;;;;;;78.00;46.00;;;3.80;99.90;;;;;;2586735;54;20023;31
2022/02/15 07:49:23;;;;;;;73.25;45.70;;;3.80;99.90;;;;;;2602509;46;20875;31
2022/02/15 07:51:57;;;;;;;73.00;44.17;;;3.80;99.90;;;;;;2586709;54;20053;31
2022/02/15 07:54:37;;;;;;;82.22;49.60;;;3.80;99.90;;;;;;2586521;54;20082;31
2022/02/15 07:57:11;;;;;;;178.38;54.75;;;3.80;99.90;;;;;;2586785;54;20883;31
2022/02/15 07:59:42;;;;;;;165.40;60.03;;;3.90;99.90;;;;;;2586661;54;20488;31
2022/02/15 08:02:19;;;;;;;89.80;52.95;;;4.00;99.90;;;;;;2586826;54;20030;31
2022/02/15 08:04:51;;;;;;;82.00;48.75;;;4.00;99.90;;;;;;2586616;54;20754;31
2022/02/15 08:07:25;;;;;;;72.10;44.92;;;4.00;99.90;;;;;;2586527;54;20007;31
2022/02/15 08:10:02;;;;;;;79.70;48.85;;;4.20;99.90;;;;;;2586720;54;20852;31
2022/02/15 08:12:36;;;;;;;78.70;48.40;;;4.30;99.90;;;;;;2586539;54;20966;31
2022/02/15 08:15:09;;;;;;;73.03;45.13;;;4.30;99.90;;;;;;2586496;54;20896;31
2022/02/15 08:17:43;;;;;;;77.20;48.15;;;4.40;99.90;;;;;;2586497;54;21123;31
2022/02/15 08:20:16;;;;;;;87.35;50.03;;;4.50;99.90;;;;;;2586406;54;20124;31
2022/02/15 08:22:50;;;;;;;103.30;51.55;;;4.50;99.90;;;;;;2586346;54;20032;31
2022/02/15 08:25:25;;;;;;;106.20;59.30;;;4.60;99.90;;;;;;2684260;39;20485;31
2022/02/15 08:27:59;;;;;;;111.85;64.70;;;4.80;99.90;;;;;;2586560;54;20055;31
2022/02/15 08:30:34;;;;;;;72.80;46.20;;;5.00;99.90;;;;;;2586420;54;20053;31
2022/02/15 08:33:08;;;;;;;70.03;43.37;;;5.20;99.90;;;;;;2604515;46;21333;31
2022/02/15 08:35:40;;;;;;;69.57;44.80;;;5.40;99.90;;;;;;2586163;54;19935;31
2022/02/15 08:38:15;;;;;;;68.60;43.15;;;5.50;99.90;;;;;;2586492;54;20901;31
2022/02/15 08:40:51;;;;;;;59.17;38.63;;;5.60;99.90;;;;;;2586383;54;20109;31
2022/02/15 08:43:23;;;;;;;53.50;33.75;;;5.70;99.90;;;;;;2604795;46;20050;31
2022/02/15 08:45:55;;;;;;;49.60;30.20;;;5.80;99.90;;;;;;2604220;46;20052;31
2022/02/15 08:48:29;;;;;;;47.30;30.08;;;5.90;99.90;;;;;;2586562;54;20062;31
2022/02/15 08:51:03;;;;;;;39.00;26.10;;;5.90;99.90;;;;;;2586609;54;20026;31
2022/02/15 08:53:38;;;;;;;38.75;24.92;;;6.00;99.90;;;;;;2586372;54;20031;31
2022/02/15 08:56:15;;;;;;;32.45;22.98;;;6.10;99.90;;;;;;2586486;54;20860;31
2022/02/15 08:58:50;;;;;;;32.80;21.15;;;6.30;99.90;;;;;;2604672;46;20482;31
2022/02/15 09:01:25;;;;;;;30.25;21.10;;;6.40;99.90;;;;;;2586290;54;20046;31
2022/02/15 09:03:56;;;;;;;35.10;21.40;;;6.50;99.90;;;;;;2586267;54;20960;31
2022/02/15 09:06:29;;;;;;;24.20;18.30;;;6.70;99.90;;;;;;2604618;46;20026;31
2022/02/15 09:09:03;;;;;;;26.30;17.60;;;6.90;99.90;;;;;;2605060;46;20085;31
2022/02/15 09:11:39;;;;;;;28.25;17.80;;;7.00;99.90;;;;;;2586527;54;21478;31
2022/02/15 09:14:12;;;;;;;26.48;16.52;;;7.10;99.90;;;;;;2586330;54;20749;31
2022/02/15 09:16:45;;;;;;;25.60;17.08;;;7.20;99.90;;;;;;2604434;46;20112;31
2022/02/15 09:19:20;;;;;;;30.67;17.65;;;7.20;99.90;;;;;;2586503;54;20030;31
2022/02/15 09:21:54;;;;;;;27.50;16.55;;;7.30;99.90;;;;;;2604916;46;20049;31
2022/02/15 09:24:29;;;;;;;23.33;15.70;;;7.30;99.90;;;;;;2586369;54;20948;31
2022/02/15 09:27:07;;;;;;;25.10;15.20;;;7.40;99.90;;;;;;2586500;54;20716;31
2022/02/15 09:29:39;;;;;;;23.93;15.73;;;7.40;99.90;;;;;;2586141;54;21265;31
2022/02/15 09:32:13;;;;;;;21.83;14.68;;;7.40;99.90;;;;;;2586486;54;20986;31
2022/02/15 09:34:47;;;;;;;22.25;15.57;;;7.40;99.90;;;;;;2585404;54;20033;31
2022/02/15 09:37:20;;;;;;;24.42;16.77;;;7.40;99.90;;;;;;2586477;54;20030;31
2022/02/15 09:39:55;;;;;;;21.60;16.10;;;7.30;99.90;;;;;;2586438;54;20941;31
2022/02/15 09:42:32;;;;;;;26.48;16.65;;;7.30;99.90;;;;;;2684169;39;20585;31
2022/02/15 09:45:07;;;;;;;24.55;15.85;;;7.30;99.90;;;;;;2586230;54;20031;31
2022/02/15 09:47:42;;;;;;;24.50;16.50;;;7.30;99.90;;;;;;2586318;54;21377;31
2022/02/15 09:50:14;;;;;;;26.15;16.27;;;7.30;99.90;;;;;;2586360;54;20934;31
2022/02/15 09:52:47;;;;;;;27.47;16.23;;;7.40;99.90;;;;;;2586207;54;20108;31
2022/02/15 09:55:19;;;;;;;23.40;16.35;;;7.40;99.90;;;;;;2604498;46;20242;31
2022/02/15 09:57:56;;;;;;;24.52;16.00;;;7.40;99.90;;;;;;2586129;54;20019;31
2022/02/15 10:00:31;;;;;;;26.77;16.05;;;7.40;99.90;;;;;;2586398;54;20863;31
2022/02/15 10:03:04;;;;;;;27.55;14.70;;;7.50;99.90;;;;;;2604795;46;20867;31
2022/02/15 10:05:39;;;;;;;24.45;16.35;;;7.60;99.90;;;;;;2586065;54;20035;31
2022/02/15 10:08:13;;;;;;;20.33;13.68;;;7.70;99.90;;;;;;2586237;54;20030;31
2022/02/15 10:10:47;;;;;;;26.75;17.10;;;7.80;99.90;;;;;;2586174;54;20824;31
2022/02/15 10:13:24;;;;;;;25.77;16.03;;;7.80;99.90;;;;;;2586129;54;20732;31
2022/02/15 10:15:59;;;;;;;27.63;16.27;;;7.90;99.90;;;;;;2586033;54;19934;31
2022/02/15 10:18:36;;;;;;;24.70;16.20;;;7.90;99.90;;;;;;2586318;54;20913;31
2022/02/15 10:21:17;;;;;;;23.40;15.68;;;7.90;99.90;;;;;;2702401;39;21514;31
2022/02/15 10:23:53;;;;;;;24.00;15.63;;;7.90;99.90;;;;;;2586238;54;20029;31
2022/02/15 10:26:28;;;;;;;24.80;15.35;;;7.90;99.90;;;;;;2586180;54;20823;31
2022/02/15 10:29:04;;;;;;;23.83;15.30;;;7.90;99.90;;;;;;2586203;54;20866;31
2022/02/15 10:31:58;;;;;;;23.97;15.67;;;7.90;99.90;;;;;;2586249;54;20893;31
2022/02/15 10:34:31;;;;;;;21.53;15.10;;;7.90;99.90;;;;;;2586384;54;20917;31
2022/02/15 10:37:04;;;;;;;23.90;15.90;;;7.90;99.90;;;;;;2586274;54;20093;31
2022/02/15 10:39:40;;;;;;;22.30;15.40;;;7.90;99.90;;;;;;2586064;54;20050;31
2022/02/15 10:42:16;;;;;;;24.65;15.85;;;7.90;99.90;;;;;;2585994;54;20333;31
2022/02/15 10:45:01;;;;;;;21.52;16.08;;;7.90;99.90;;;;;;2586002;54;20727;31
2022/02/15 10:47:35;;;;;;;21.77;16.67;;;7.80;99.90;;;;;;2585968;54;20081;31
2022/02/15 10:50:10;;;;;;;25.20;16.58;;;7.80;99.90;;;;;;2683905;39;20507;31
2022/02/15 10:52:43;;;;;;;22.30;16.07;;;7.80;99.90;;;;;;2586244;54;20765;31
2022/02/15 10:55:16;;;;;;;20.83;15.80;;;7.70;99.90;;;;;;2586347;54;21338;31
2022/02/15 10:57:51;;;;;;;24.73;16.58;;;7.70;99.90;;;;;;2586223;54;20049;31
2022/02/15 11:00:26;;;;;;;22.70;15.90;;;7.70;99.90;;;;;;2586455;54;20093;31
2022/02/15 11:03:00;;;;;;;24.20;16.90;;;7.60;99.90;;;;;;2586705;54;20984;31
2022/02/15 11:05:34;;;;;;;22.40;17.35;;;7.60;99.90;;;;;;2586798;54;20141;31
2022/02/15 11:08:08;;;;;;;25.98;17.00;;;7.50;99.90;;;;;;2586940;54;20904;31
2022/02/15 11:10:47;;;;;;;24.75;16.92;;;7.50;99.90;;;;;;2586651;54;20766;31
2022/02/15 11:13:19;;;;;;;24.83;17.80;;;7.50;99.90;;;;;;2586941;54;20038;31
2022/02/15 11:15:57;;;;;;;23.90;17.15;;;7.40;99.90;;;;;;2604321;46;20160;31
2022/02/15 11:18:32;;;;;;;27.15;17.95;;;7.40;99.90;;;;;;2586576;54;20033;31
2022/02/15 11:21:06;;;;;;;25.20;17.57;;;7.40;99.90;;;;;;2586672;54;20050;31
2022/02/15 11:23:45;;;;;;;23.08;16.27;;;7.40;99.90;;;;;;2586944;54;20289;31
2022/02/15 11:26:20;;;;;;;21.30;15.90;;;7.40;99.90;;;;;;2586731;54;20058;31
2022/02/15 11:28:56;;;;;;;22.98;16.80;;;7.40;99.90;;;;;;2586779;54;20858;31
2022/02/15 11:31:34;;;;;;;24.63;17.88;;;7.40;99.90;;;;;;2587075;54;20030;31
2022/02/15 11:34:07;;;;;;;27.98;18.23;;;7.40;99.90;;;;;;2586939;54;20037;31
2022/02/15 11:36:47;;;;;;;24.92;17.30;;;7.40;99.90;;;;;;2586860;54;20918;31
2022/02/15 11:39:21;;;;;;;27.52;18.58;;;7.40;99.90;;;;;;2586805;54;20057;31
2022/02/15 11:41:57;;;;;;;25.23;17.23;;;7.40;99.90;;;;;;2586608;54;20984;31
2022/02/15 11:44:31;;;;;;;25.57;17.20;;;7.40;99.90;;;;;;2586762;54;20851;31
2022/02/15 11:47:17;;;;;;;25.97;16.87;;;7.50;99.90;;;;;;2605111;46;20719;31
2022/02/15 11:49:53;;;;;;;25.10;17.60;;;7.60;99.90;;;;;;2586863;54;20777;31
2022/02/15 11:52:27;;;;;;;23.95;17.45;;;7.70;99.90;;;;;;2586830;54;20824;31
2022/02/15 11:55:07;;;;;;;25.95;18.20;;;7.80;99.90;;;;;;2586920;54;20849;31
2022/02/15 11:57:42;;;;;;;22.43;16.33;;;7.90;99.90;;;;;;2586504;54;20519;31
2022/02/15 12:00:14;;;;;;;24.87;17.10;;;8.00;99.90;;;;;;2586724;54;20048;31
2022/02/15 12:02:57;;;;;;;25.05;17.15;;;8.10;99.90;;;;;;2586547;54;20097;31
2022/02/15 12:05:31;;;;;;;25.80;17.15;;;8.30;99.90;;;;;;2586834;54;20892;31
2022/02/15 12:08:06;;;;;;;23.10;16.77;;;8.30;99.90;;;;;;2600882;46;20990;31
2022/02/15 12:10:41;;;;;;;23.90;18.25;;;8.40;99.90;;;;;;2586748;54;20855;31
2022/02/15 12:13:19;;;;;;;22.40;16.83;;;8.50;99.90;;;;;;2605288;46;20081;31
2022/02/15 12:15:54;;;;;;;22.00;16.77;;;8.50;99.90;;;;;;2586487;54;20537;31
2022/02/15 12:18:46;;;;;;;22.20;16.00;;;8.60;99.90;;;;;;2586697;54;20956;31
2022/02/15 12:21:21;;;;;;;24.30;16.17;;;8.60;99.90;;;;;;2586854;54;20839;31
2022/02/15 12:23:53;;;;;;;23.50;17.20;;;8.60;99.90;;;;;;2586482;54;20081;31
2022/02/15 12:26:42;;;;;;;23.45;16.35;;;8.70;99.90;;;;;;2586447;54;20973;31
2022/02/15 12:29:16;;;;;;;23.00;16.67;;;8.70;99.90;;;;;;2586517;54;20022;31
2022/02/15 12:31:55;;;;;;;22.20;16.07;;;8.70;99.90;;;;;;2586536;54;20031;31
2022/02/15 12:34:30;;;;;;;23.87;16.83;;;8.80;99.90;;;;;;2586331;54;20854;31
2022/02/15 12:37:03;;;;;;;20.87;15.60;;;8.80;99.90;;;;;;2586419;54;20953;31
2022/02/15 12:39:37;;;;;;;20.48;15.35;;;8.80;99.90;;;;;;2601824;46;20030;31
2022/02/15 12:42:13;;;;;;;22.90;15.60;;;8.80;99.90;;;;;;2586586;54;20026;31
2022/02/15 12:44:57;;;;;;;18.90;14.10;;;8.80;99.90;;;;;;2586501;54;20065;31
2022/02/15 12:47:34;;;;;;;23.30;16.00;;;8.80;99.90;;;;;;2586377;54;20054;31
2022/02/15 12:50:14;;;;;;;19.42;14.35;;;8.90;99.90;;;;;;2586677;54;20744;31
2022/02/15 12:52:45;;;;;;;22.02;16.02;;;9.00;99.90;;;;;;2586441;54;20916;31
2022/02/15 12:55:19;;;;;;;24.20;14.80;;;9.00;99.90;;;;;;2586312;54;20078;31
2022/02/15 12:57:53;;;;;;;19.42;14.88;;;9.00;99.90;;;;;;2586112;54;20250;31
2022/02/15 13:00:29;;;;;;;22.65;14.73;;;9.10;99.90;;;;;;2595971;46;20461;31
2022/02/15 13:03:04;;;;;;;21.85;14.32;;;9.10;99.90;;;;;;2586327;54;20030;31
2022/02/15 13:05:40;;;;;;;22.15;14.25;;;9.10;99.90;;;;;;2586168;54;20026;31
2022/02/15 13:08:19;;;;;;;23.13;14.87;;;9.20;99.90;;;;;;2586559;54;20922;31
2022/02/15 13:10:58;;;;;;;18.05;13.65;;;9.30;99.90;;;;;;2604537;46;20961;31
2022/02/15 13:13:30;;;;;;;22.00;14.00;;;9.30;99.90;;;;;;2586507;54;20908;31
2022/02/15 13:16:05;;;;;;;20.15;13.95;;;9.30;99.90;;;;;;2586344;54;20847;31
2022/02/15 13:18:45;;;;;;;17.50;13.32;;;9.40;99.90;;;;;;2586582;54;20861;31
2022/02/15 13:21:24;;;;;;;19.13;14.77;;;9.40;99.90;;;;;;2586499;54;20723;31
2022/02/15 13:23:59;;;;;;;21.55;13.52;;;9.40;99.90;;;;;;2586242;54;20034;31
2022/02/15 13:26:34;;;;;;;16.35;12.50;;;9.50;99.90;;;;;;2590228;46;21245;31
2022/02/15 13:29:10;;;;;;;20.67;12.98;;;9.50;99.90;;;;;;2586443;54;20022;31
2022/02/15 13:31:51;;;;;;;19.75;11.73;;;9.50;99.90;;;;;;2604886;46;20023;31
2022/02/15 13:34:33;;;;;;;24.10;12.40;;;9.60;99.90;;;;;;2586388;54;20751;31
2022/02/15 13:37:11;;;;;;;18.20;13.35;;;9.50;99.90;;;;;;2585972;54;20893;31